sensor_id;sensor_type;location;lat;lon;timestamp;temperature;humidity
24152;DHT22;12311;50.866;4.332;2022-12-07T00:01:10;5.90;99.90
24152;DHT22;12311;50.866;4.332;2022-12-07T00:03:37;5.70;99.90
24152;DHT22;12311;50.866;4.332;2022-12-07T00:06:05;5.70;99.90
24152;DHT22;12311;50.866;4.332;2022-12-07T00:08:32;5.60;99.90
24152;DHT22;12311;50.866;4.332;2022-12-07T00:11:06;5.50;99.90
24152;DHT22;12311;50.866;4.332;2022-12-07T00:13:33;5.60;99.90
24152;DHT22;12311;50.866;4.332;2022-12-07T00:16:08;5.50;99.90
24152;DHT22;12311;50.866;4.332;2022-12-07T00:18:35;5.50;99.90
24152;DHT22;12311;50.866;4.332;2022-12-07T00:21:11;5.50;99.90
24152;DHT22;12311;50.866;4.332;2022-12-07T00:23:38;5.50;99.90
24152;DHT22;12311;50.866;4.332;2022-12-07T00:26:12;5.50;99.90
24152;DHT22;12311;50.866;4.332;2022-12-07T00:28:38;5.50;99.90
24152;DHT22;12311;50.866;4.332;2022-12-07T00:31:07;5.40;99.90
24152;DHT22;12311;50.866;4.332;2022-12-07T00:33:34;5.40;99.90
24152;DHT22;12311;50.866;4.332;2022-12-07T00:36:01;5.50;99.90
24152;DHT22;12311;50.866;4.332;2022-12-07T00:38:29;5.40;99.90
24152;DHT22;12311;50.866;4.332;2022-12-07T00:40:57;5.40;99.90
24152;DHT22;12311;50.866;4.332;2022-12-07T00:43:23;5.40;99.90
24152;DHT22;12311;50.866;4.332;2022-12-07T00:45:49;5.50;99.90
24152;DHT22;12311;50.866;4.332;2022-12-07T00:48:14;5.50;99.90
24152;DHT22;12311;50.866;4.332;2022-12-07T00:50:40;5.40;99.90
24152;DHT22;12311;50.866;4.332;2022-12-07T00:53:06;5.30;99.90
24152;DHT22;12311;50.866;4.332;2022-12-07T00:55:35;5.30;99.90
24152;DHT22;12311;50.866;4.332;2022-12-07T00:58:01;5.20;99.90
24152;DHT22;12311;50.866;4.332;2022-12-07T01:00:26;5.20;99.90
24152;DHT22;12311;50.866;4.332;2022-12-07T01:02:52;5.10;99.90
24152;DHT22;12311;50.866;4.332;2022-12-07T01:05:18;5.10;99.90
24152;DHT22;12311;50.866;4.332;2022-12-07T01:07:44;5.20;99.90
24152;DHT22;12311;50.866;4.332;2022-12-07T01:10:10;5.20;99.90
24152;DHT22;12311;50.866;4.332;2022-12-07T01:12:35;5.10;99.90
24152;DHT22;12311;50.866;4.332;2022-12-07T01:15:01;5.00;99.90
24152;DHT22;12311;50.866;4.332;2022-12-07T01:17:28;4.90;99.90
24152;DHT22;12311;50.866;4.332;2022-12-07T01:19:54;5.00;99.90
24152;DHT22;12311;50.866;4.332;2022-12-07T01:22:19;5.00;99.90
24152;DHT22;12311;50.866;4.332;2022-12-07T01:24:45;5.10;99.90
24152;DHT22;12311;50.866;4.332;2022-12-07T01:27:12;5.10;99.90
24152;DHT22;12311;50.866;4.332;2022-12-07T01:29:38;5.00;99.90
24152;DHT22;12311;50.866;4.332;2022-12-07T01:32:04;5.10;99.90
24152;DHT22;12311;50.866;4.332;2022-12-07T01:34:30;5.00;99.90
24152;DHT22;12311;50.866;4.332;2022-12-07T01:36:55;5.00;99.90
24152;DHT22;12311;50.866;4.332;2022-12-07T01:39:22;4.90;99.90
24152;DHT22;12311;50.866;4.332;2022-12-07T01:41:47;4.90;99.90
24152;DHT22;12311;50.866;4.332;2022-12-07T01:46:52;4.90;99.90
24152;DHT22;12311;50.866;4.332;2022-12-07T01:49:26;4.90;99.90
24152;DHT22;12311;50.866;4.332;2022-12-07T01:52:17;4.90;99.90
24152;DHT22;12311;50.866;4.332;2022-12-07T01:54:42;4.90;99.90
24152;DHT22;12311;50.866;4.332;2022-12-07T01:57:10;5.00;99.90
24152;DHT22;12311;50.866;4.332;2022-12-07T01:59:36;5.10;99.90
24152;DHT22;12311;50.866;4.332;2022-12-07T02:02:04;5.10;99.90
24152;DHT22;12311;50.866;4.332;2022-12-07T02:04:33;5.20;99.90
24152;DHT22;12311;50.866;4.332;2022-12-07T02:07:02;5.10;99.90
24152;DHT22;12311;50.866;4.332;2022-12-07T02:09:28;5.10;99.90
24152;DHT22;12311;50.866;4.332;2022-12-07T02:11:55;5.10;99.90
24152;DHT22;12311;50.866;4.332;2022-12-07T02:14:21;5.00;99.90
24152;DHT22;12311;50.866;4.332;2022-12-07T02:17:08;4.90;99.90
24152;DHT22;12311;50.866;4.332;2022-12-07T02:19:59;4.80;99.90
24152;DHT22;12311;50.866;4.332;2022-12-07T02:22:43;4.80;99.90
24152;DHT22;12311;50.866;4.332;2022-12-07T02:28:18;5.00;99.90
24152;DHT22;12311;50.866;4.332;2022-12-07T02:30:46;5.10;99.90
24152;DHT22;12311;50.866;4.332;2022-12-07T02:33:23;5.20;99.90
24152;DHT22;12311;50.866;4.332;2022-12-07T02:36:06;5.20;99.90
24152;DHT22;12311;50.866;4.332;2022-12-07T02:38:43;5.20;99.90
24152;DHT22;12311;50.866;4.332;2022-12-07T02:41:18;5.20;99.90
24152;DHT22;12311;50.866;4.332;2022-12-07T02:43:52;5.10;99.90
24152;DHT22;12311;50.866;4.332;2022-12-07T02:46:32;5.10;99.90
24152;DHT22;12311;50.866;4.332;2022-12-07T02:48:59;5.00;99.90
24152;DHT22;12311;50.866;4.332;2022-12-07T02:51:30;5.00;99.90
24152;DHT22;12311;50.866;4.332;2022-12-07T02:53:56;5.00;99.90
24152;DHT22;12311;50.866;4.332;2022-12-07T02:56:36;4.90;99.90
24152;DHT22;12311;50.866;4.332;2022-12-07T03:10:07;4.90;99.90
24152;DHT22;12311;50.866;4.332;2022-12-07T03:12:46;4.90;99.90
24152;DHT22;12311;50.866;4.332;2022-12-07T03:15:24;4.90;99.90
24152;DHT22;12311;50.866;4.332;2022-12-07T03:17:51;4.80;99.90
24152;DHT22;12311;50.866;4.332;2022-12-07T03:20:20;4.80;99.90
24152;DHT22;12311;50.866;4.332;2022-12-07T03:22:47;4.80;99.90
24152;DHT22;12311;50.866;4.332;2022-12-07T03:25:15;4.70;99.90
24152;DHT22;12311;50.866;4.332;2022-12-07T03:27:59;4.70;99.90
24152;DHT22;12311;50.866;4.332;2022-12-07T03:30:54;4.60;99.90
24152;DHT22;12311;50.866;4.332;2022-12-07T03:33:26;4.60;99.90
24152;DHT22;12311;50.866;4.332;2022-12-07T03:36:01;4.70;99.90
24152;DHT22;12311;50.866;4.332;2022-12-07T03:38:40;4.70;99.90
24152;DHT22;12311;50.866;4.332;2022-12-07T03:41:16;4.80;99.90
24152;DHT22;12311;50.866;4.332;2022-12-07T03:43:44;4.80;99.90
24152;DHT22;12311;50.866;4.332;2022-12-07T03:46:34;4.90;99.90
24152;DHT22;12311;50.866;4.332;2022-12-07T03:52:47;4.70;99.90
24152;DHT22;12311;50.866;4.332;2022-12-07T03:55:26;4.60;99.90
24152;DHT22;12311;50.866;4.332;2022-12-07T03:58:01;4.60;99.90
24152;DHT22;12311;50.866;4.332;2022-12-07T04:00:28;4.60;99.90
24152;DHT22;12311;50.866;4.332;2022-12-07T04:02:54;4.50;99.90
24152;DHT22;12311;50.866;4.332;2022-12-07T04:05:20;4.50;99.90
24152;DHT22;12311;50.866;4.332;2022-12-07T04:07:45;4.40;99.90
24152;DHT22;12311;50.866;4.332;2022-12-07T04:10:11;4.40;99.90
24152;DHT22;12311;50.866;4.332;2022-12-07T04:12:37;4.40;99.90
24152;DHT22;12311;50.866;4.332;2022-12-07T04:15:04;4.30;99.90
24152;DHT22;12311;50.866;4.332;2022-12-07T04:17:30;4.30;99.90
24152;DHT22;12311;50.866;4.332;2022-12-07T04:19:55;4.30;99.90
24152;DHT22;12311;50.866;4.332;2022-12-07T04:22:21;4.30;99.90
24152;DHT22;12311;50.866;4.332;2022-12-07T04:24:46;4.30;99.90
24152;DHT22;12311;50.866;4.332;2022-12-07T04:27:12;4.20;99.90
24152;DHT22;12311;50.866;4.332;2022-12-07T04:29:38;4.20;99.90
24152;DHT22;12311;50.866;4.332;2022-12-07T04:32:03;4.30;99.90
24152;DHT22;12311;50.866;4.332;2022-12-07T04:34:29;4.30;99.90
24152;DHT22;12311;50.866;4.332;2022-12-07T04:36:55;4.30;99.90
24152;DHT22;12311;50.866;4.332;2022-12-07T04:39:27;4.40;99.90
24152;DHT22;12311;50.866;4.332;2022-12-07T04:41:52;4.50;99.90
24152;DHT22;12311;50.866;4.332;2022-12-07T04:44:19;4.70;99.90
24152;DHT22;12311;50.866;4.332;2022-12-07T04:46:45;4.70;99.90
24152;DHT22;12311;50.866;4.332;2022-12-07T04:49:12;4.70;99.90
24152;DHT22;12311;50.866;4.332;2022-12-07T04:51:38;4.70;99.90
24152;DHT22;12311;50.866;4.332;2022-12-07T04:54:05;4.70;99.90
24152;DHT22;12311;50.866;4.332;2022-12-07T04:56:31;4.70;99.90
24152;DHT22;12311;50.866;4.332;2022-12-07T04:58:57;4.70;99.90
24152;DHT22;12311;50.866;4.332;2022-12-07T05:01:24;4.70;99.90
24152;DHT22;12311;50.866;4.332;2022-12-07T05:03:50;4.60;99.90
24152;DHT22;12311;50.866;4.332;2022-12-07T05:06:16;4.50;99.90
24152;DHT22;12311;50.866;4.332;2022-12-07T05:08:42;4.50;99.90
24152;DHT22;12311;50.866;4.332;2022-12-07T05:11:09;4.50;99.90
24152;DHT22;12311;50.866;4.332;2022-12-07T05:13:35;4.40;99.90
24152;DHT22;12311;50.866;4.332;2022-12-07T05:16:01;4.40;99.90
24152;DHT22;12311;50.866;4.332;2022-12-07T05:18:27;4.40;99.90
24152;DHT22;12311;50.866;4.332;2022-12-07T05:20:53;4.30;99.90
24152;DHT22;12311;50.866;4.332;2022-12-07T05:23:18;4.30;99.90
24152;DHT22;12311;50.866;4.332;2022-12-07T05:25:45;4.30;99.90
24152;DHT22;12311;50.866;4.332;2022-12-07T05:28:11;4.30;99.90
24152;DHT22;12311;50.866;4.332;2022-12-07T05:30:36;4.30;99.90
24152;DHT22;12311;50.866;4.332;2022-12-07T05:33:02;4.30;99.90
24152;DHT22;12311;50.866;4.332;2022-12-07T05:35:28;4.40;99.90
24152;DHT22;12311;50.866;4.332;2022-12-07T05:37:55;4.40;99.90
24152;DHT22;12311;50.866;4.332;2022-12-07T05:40:21;4.50;99.90
24152;DHT22;12311;50.866;4.332;2022-12-07T05:42:47;4.60;99.90
24152;DHT22;12311;50.866;4.332;2022-12-07T05:45:12;4.60;99.90
24152;DHT22;12311;50.866;4.332;2022-12-07T05:47:38;4.60;99.90
24152;DHT22;12311;50.866;4.332;2022-12-07T05:50:05;4.50;99.90
24152;DHT22;12311;50.866;4.332;2022-12-07T05:52:31;4.60;99.90
24152;DHT22;12311;50.866;4.332;2022-12-07T05:54:56;4.60;99.90
24152;DHT22;12311;50.866;4.332;2022-12-07T05:57:22;4.60;99.90
24152;DHT22;12311;50.866;4.332;2022-12-07T05:59:48;4.50;99.90
24152;DHT22;12311;50.866;4.332;2022-12-07T06:02:15;4.50;99.90
24152;DHT22;12311;50.866;4.332;2022-12-07T06:04:46;4.50;99.90
24152;DHT22;12311;50.866;4.332;2022-12-07T06:07:14;4.40;99.90
24152;DHT22;12311;50.866;4.332;2022-12-07T06:09:40;4.40;99.90
24152;DHT22;12311;50.866;4.332;2022-12-07T06:12:06;4.40;99.90
24152;DHT22;12311;50.866;4.332;2022-12-07T06:14:52;4.50;99.90
24152;DHT22;12311;50.866;4.332;2022-12-07T06:17:18;4.40;99.90
24152;DHT22;12311;50.866;4.332;2022-12-07T06:19:44;4.40;99.90
24152;DHT22;12311;50.866;4.332;2022-12-07T06:22:10;4.50;99.90
24152;DHT22;12311;50.866;4.332;2022-12-07T06:24:37;4.40;99.90
24152;DHT22;12311;50.866;4.332;2022-12-07T06:27:03;4.40;99.90
24152;DHT22;12311;50.866;4.332;2022-12-07T06:29:29;4.30;99.90
24152;DHT22;12311;50.866;4.332;2022-12-07T06:31:55;4.40;99.90
24152;DHT22;12311;50.866;4.332;2022-12-07T06:34:22;4.40;99.90
24152;DHT22;12311;50.866;4.332;2022-12-07T06:36:49;4.30;99.90
24152;DHT22;12311;50.866;4.332;2022-12-07T06:39:21;4.30;99.90
24152;DHT22;12311;50.866;4.332;2022-12-07T06:41:47;4.40;99.90
24152;DHT22;12311;50.866;4.332;2022-12-07T06:44:14;4.40;99.90
24152;DHT22;12311;50.866;4.332;2022-12-07T06:46:39;4.40;99.90
24152;DHT22;12311;50.866;4.332;2022-12-07T06:49:05;4.50;99.90
24152;DHT22;12311;50.866;4.332;2022-12-07T06:51:32;4.50;99.90
24152;DHT22;12311;50.866;4.332;2022-12-07T06:53:58;4.40;99.90
24152;DHT22;12311;50.866;4.332;2022-12-07T06:56:24;4.50;99.90
24152;DHT22;12311;50.866;4.332;2022-12-07T06:58:49;4.50;99.90
24152;DHT22;12311;50.866;4.332;2022-12-07T07:01:18;4.50;99.90
24152;DHT22;12311;50.866;4.332;2022-12-07T07:03:44;4.50;99.90
24152;DHT22;12311;50.866;4.332;2022-12-07T07:06:10;4.40;99.90
24152;DHT22;12311;50.866;4.332;2022-12-07T07:08:37;4.50;99.90
24152;DHT22;12311;50.866;4.332;2022-12-07T07:11:03;4.60;99.90
24152;DHT22;12311;50.866;4.332;2022-12-07T07:13:29;4.60;99.90
24152;DHT22;12311;50.866;4.332;2022-12-07T07:15:55;4.60;99.90
24152;DHT22;12311;50.866;4.332;2022-12-07T07:18:21;4.70;99.90
24152;DHT22;12311;50.866;4.332;2022-12-07T07:20:47;4.70;99.90
24152;DHT22;12311;50.866;4.332;2022-12-07T07:23:13;4.70;99.90
24152;DHT22;12311;50.866;4.332;2022-12-07T07:25:39;4.70;99.90
24152;DHT22;12311;50.866;4.332;2022-12-07T07:28:05;4.70;99.90
24152;DHT22;12311;50.866;4.332;2022-12-07T07:30:31;4.60;99.90
24152;DHT22;12311;50.866;4.332;2022-12-07T07:32:57;4.70;99.90
24152;DHT22;12311;50.866;4.332;2022-12-07T07:35:24;4.70;99.90
24152;DHT22;12311;50.866;4.332;2022-12-07T07:37:50;4.90;99.90
24152;DHT22;12311;50.866;4.332;2022-12-07T07:40:15;4.80;99.90
24152;DHT22;12311;50.866;4.332;2022-12-07T07:42:41;5.00;99.90
24152;DHT22;12311;50.866;4.332;2022-12-07T07:45:07;5.10;99.90
24152;DHT22;12311;50.866;4.332;2022-12-07T07:47:33;5.00;99.90
24152;DHT22;12311;50.866;4.332;2022-12-07T07:49:59;4.90;99.90
24152;DHT22;12311;50.866;4.332;2022-12-07T07:52:24;4.70;99.90
24152;DHT22;12311;50.866;4.332;2022-12-07T07:54:50;4.70;99.90
24152;DHT22;12311;50.866;4.332;2022-12-07T07:57:17;4.70;99.90
24152;DHT22;12311;50.866;4.332;2022-12-07T07:59:43;4.70;99.90
24152;DHT22;12311;50.866;4.332;2022-12-07T08:02:16;4.80;99.90
24152;DHT22;12311;50.866;4.332;2022-12-07T08:04:42;4.80;99.90
24152;DHT22;12311;50.866;4.332;2022-12-07T08:07:08;4.80;99.90
24152;DHT22;12311;50.866;4.332;2022-12-07T08:09:34;4.80;99.90
24152;DHT22;12311;50.866;4.332;2022-12-07T08:12:00;4.80;99.90
24152;DHT22;12311;50.866;4.332;2022-12-07T08:14:26;4.70;99.90
24152;DHT22;12311;50.866;4.332;2022-12-07T08:16:53;4.70;99.90
24152;DHT22;12311;50.866;4.332;2022-12-07T08:19:18;4.70;99.90
24152;DHT22;12311;50.866;4.332;2022-12-07T08:21:44;4.70;99.90
24152;DHT22;12311;50.866;4.332;2022-12-07T08:24:10;4.80;99.90
24152;DHT22;12311;50.866;4.332;2022-12-07T08:26:35;4.70;99.90
24152;DHT22;12311;50.866;4.332;2022-12-07T08:29:01;4.70;99.90
24152;DHT22;12311;50.866;4.332;2022-12-07T08:31:27;4.60;99.90
24152;DHT22;12311;50.866;4.332;2022-12-07T08:33:53;4.60;99.90
24152;DHT22;12311;50.866;4.332;2022-12-07T08:36:19;4.60;99.90
24152;DHT22;12311;50.866;4.332;2022-12-07T08:38:45;4.60;99.90
24152;DHT22;12311;50.866;4.332;2022-12-07T08:41:10;4.60;99.90
24152;DHT22;12311;50.866;4.332;2022-12-07T08:43:36;4.90;99.90
24152;DHT22;12311;50.866;4.332;2022-12-07T08:48:49;5.00;99.90
24152;DHT22;12311;50.866;4.332;2022-12-07T08:51:17;5.00;99.90
24152;DHT22;12311;50.866;4.332;2022-12-07T08:53:43;5.00;99.90
24152;DHT22;12311;50.866;4.332;2022-12-07T08:56:10;5.00;99.90
24152;DHT22;12311;50.866;4.332;2022-12-07T08:58:37;5.10;99.90
24152;DHT22;12311;50.866;4.332;2022-12-07T09:01:04;5.20;99.90
24152;DHT22;12311;50.866;4.332;2022-12-07T09:03:30;5.30;99.90
24152;DHT22;12311;50.866;4.332;2022-12-07T09:05:57;5.30;99.90
24152;DHT22;12311;50.866;4.332;2022-12-07T09:08:25;5.40;99.90
24152;DHT22;12311;50.866;4.332;2022-12-07T09:10:51;5.60;99.90
24152;DHT22;12311;50.866;4.332;2022-12-07T09:13:17;5.70;99.90
24152;DHT22;12311;50.866;4.332;2022-12-07T09:15:43;5.90;99.90
24152;DHT22;12311;50.866;4.332;2022-12-07T09:18:08;5.90;99.90
24152;DHT22;12311;50.866;4.332;2022-12-07T09:20:34;5.80;99.90
24152;DHT22;12311;50.866;4.332;2022-12-07T09:23:00;5.80;99.90
24152;DHT22;12311;50.866;4.332;2022-12-07T09:25:25;5.80;99.90
24152;DHT22;12311;50.866;4.332;2022-12-07T09:27:58;5.70;99.90
24152;DHT22;12311;50.866;4.332;2022-12-07T09:30:24;5.80;99.90
24152;DHT22;12311;50.866;4.332;2022-12-07T09:32:53;6.00;99.90
24152;DHT22;12311;50.866;4.332;2022-12-07T09:35:18;6.00;99.90
24152;DHT22;12311;50.866;4.332;2022-12-07T09:37:44;6.40;99.90
24152;DHT22;12311;50.866;4.332;2022-12-07T09:40:10;6.30;99.90
24152;DHT22;12311;50.866;4.332;2022-12-07T09:42:38;6.30;99.90
24152;DHT22;12311;50.866;4.332;2022-12-07T09:45:10;6.30;99.90
24152;DHT22;12311;50.866;4.332;2022-12-07T09:47:37;6.40;99.90
24152;DHT22;12311;50.866;4.332;2022-12-07T09:50:16;6.30;99.90
24152;DHT22;12311;50.866;4.332;2022-12-07T09:52:45;6.40;99.90
24152;DHT22;12311;50.866;4.332;2022-12-07T09:55:15;6.50;99.90
24152;DHT22;12311;50.866;4.332;2022-12-07T09:57:42;6.60;99.90
24152;DHT22;12311;50.866;4.332;2022-12-07T10:00:18;6.50;99.90
24152;DHT22;12311;50.866;4.332;2022-12-07T10:02:55;6.50;99.90
24152;DHT22;12311;50.866;4.332;2022-12-07T10:05:34;6.50;99.90
24152;DHT22;12311;50.866;4.332;2022-12-07T10:08:03;6.60;99.90
24152;DHT22;12311;50.866;4.332;2022-12-07T10:10:34;6.80;99.90
24152;DHT22;12311;50.866;4.332;2022-12-07T10:13:06;6.80;99.90
24152;DHT22;12311;50.866;4.332;2022-12-07T10:15:49;6.90;99.90
24152;DHT22;12311;50.866;4.332;2022-12-07T10:20:48;7.10;99.90
24152;DHT22;12311;50.866;4.332;2022-12-07T10:23:16;7.20;99.90
24152;DHT22;12311;50.866;4.332;2022-12-07T10:25:41;7.30;99.90
24152;DHT22;12311;50.866;4.332;2022-12-07T10:30:50;7.20;99.90
24152;DHT22;12311;50.866;4.332;2022-12-07T10:35:57;7.30;99.90
24152;DHT22;12311;50.866;4.332;2022-12-07T10:38:26;7.20;99.90
24152;DHT22;12311;50.866;4.332;2022-12-07T10:41:06;7.20;99.90
24152;DHT22;12311;50.866;4.332;2022-12-07T10:43:32;7.20;99.90
24152;DHT22;12311;50.866;4.332;2022-12-07T10:49:18;7.30;99.90
24152;DHT22;12311;50.866;4.332;2022-12-07T10:51:56;7.30;99.90
24152;DHT22;12311;50.866;4.332;2022-12-07T11:00:24;7.30;99.90
24152;DHT22;12311;50.866;4.332;2022-12-07T11:03:09;7.60;99.90
24152;DHT22;12311;50.866;4.332;2022-12-07T11:06:01;7.50;99.90
24152;DHT22;12311;50.866;4.332;2022-12-07T11:21:58;7.40;99.90
24152;DHT22;12311;50.866;4.332;2022-12-07T11:27:20;7.20;99.90
24152;DHT22;12311;50.866;4.332;2022-12-07T11:38:17;7.20;99.90
24152;DHT22;12311;50.866;4.332;2022-12-07T11:40:50;7.40;99.90
24152;DHT22;12311;50.866;4.332;2022-12-07T11:43:32;7.60;99.90
24152;DHT22;12311;50.866;4.332;2022-12-07T11:46:07;8.00;99.90
24152;DHT22;12311;50.866;4.332;2022-12-07T11:48:53;8.20;99.90
24152;DHT22;12311;50.866;4.332;2022-12-07T11:51:21;8.40;99.90
24152;DHT22;12311;50.866;4.332;2022-12-07T11:54:11;8.70;99.90
24152;DHT22;12311;50.866;4.332;2022-12-07T11:56:37;8.90;99.90
24152;DHT22;12311;50.866;4.332;2022-12-07T11:59:21;9.10;99.90
24152;DHT22;12311;50.866;4.332;2022-12-07T12:02:18;9.30;99.90
24152;DHT22;12311;50.866;4.332;2022-12-07T12:07:25;8.90;99.90
24152;DHT22;12311;50.866;4.332;2022-12-07T12:09:55;8.70;99.90
24152;DHT22;12311;50.866;4.332;2022-12-07T12:20:35;8.20;99.90
24152;DHT22;12311;50.866;4.332;2022-12-07T12:23:44;8.10;99.90
24152;DHT22;12311;50.866;4.332;2022-12-07T12:26:21;8.10;99.90
24152;DHT22;12311;50.866;4.332;2022-12-07T12:29:19;8.00;99.90
24152;DHT22;12311;50.866;4.332;2022-12-07T12:31:47;8.00;99.90
24152;DHT22;12311;50.866;4.332;2022-12-07T12:42:52;8.60;99.90
24152;DHT22;12311;50.866;4.332;2022-12-07T12:50:41;8.80;99.90
24152;DHT22;12311;50.866;4.332;2022-12-07T12:53:19;8.70;99.90
24152;DHT22;12311;50.866;4.332;2022-12-07T12:58:35;8.60;99.90
24152;DHT22;12311;50.866;4.332;2022-12-07T13:01:36;8.80;99.90
24152;DHT22;12311;50.866;4.332;2022-12-07T13:04:20;9.10;99.90
24152;DHT22;12311;50.866;4.332;2022-12-07T13:06:47;9.30;99.90
24152;DHT22;12311;50.866;4.332;2022-12-07T13:09:33;9.30;99.90
24152;DHT22;12311;50.866;4.332;2022-12-07T13:12:05;9.00;99.90
24152;DHT22;12311;50.866;4.332;2022-12-07T13:14:52;9.00;99.90
24152;DHT22;12311;50.866;4.332;2022-12-07T13:20:07;9.40;99.90
24152;DHT22;12311;50.866;4.332;2022-12-07T13:27:34;9.60;99.90
24152;DHT22;12311;50.866;4.332;2022-12-07T13:30:00;9.30;99.90
24152;DHT22;12311;50.866;4.332;2022-12-07T13:32:28;9.30;99.90
24152;DHT22;12311;50.866;4.332;2022-12-07T13:34:55;9.20;99.90
24152;DHT22;12311;50.866;4.332;2022-12-07T13:37:27;9.10;99.90
24152;DHT22;12311;50.866;4.332;2022-12-07T13:39:54;8.80;99.90
24152;DHT22;12311;50.866;4.332;2022-12-07T13:42:29;8.60;99.90
24152;DHT22;12311;50.866;4.332;2022-12-07T13:44:56;8.50;99.90
24152;DHT22;12311;50.866;4.332;2022-12-07T13:47:41;8.50;99.90
24152;DHT22;12311;50.866;4.332;2022-12-07T13:50:41;8.50;99.90
24152;DHT22;12311;50.866;4.332;2022-12-07T13:53:12;8.60;99.90
24152;DHT22;12311;50.866;4.332;2022-12-07T13:55:44;8.60;99.90
24152;DHT22;12311;50.866;4.332;2022-12-07T13:58:10;8.60;99.90
24152;DHT22;12311;50.866;4.332;2022-12-07T14:00:36;8.50;99.90
24152;DHT22;12311;50.866;4.332;2022-12-07T14:05:37;8.20;99.90
24152;DHT22;12311;50.866;4.332;2022-12-07T14:15:57;7.70;99.90
24152;DHT22;12311;50.866;4.332;2022-12-07T14:21:14;7.50;99.90
24152;DHT22;12311;50.866;4.332;2022-12-07T14:23:41;7.40;99.90
24152;DHT22;12311;50.866;4.332;2022-12-07T14:26:11;7.30;99.90
24152;DHT22;12311;50.866;4.332;2022-12-07T14:28:39;7.20;99.90
24152;DHT22;12311;50.866;4.332;2022-12-07T14:33:39;6.90;99.90
24152;DHT22;12311;50.866;4.332;2022-12-07T14:36:07;6.70;99.90
24152;DHT22;12311;50.866;4.332;2022-12-07T14:38:34;6.60;99.90
24152;DHT22;12311;50.866;4.332;2022-12-07T14:40:59;6.60;99.90
24152;DHT22;12311;50.866;4.332;2022-12-07T14:43:45;6.60;99.90
24152;DHT22;12311;50.866;4.332;2022-12-07T14:46:11;6.50;99.90
24152;DHT22;12311;50.866;4.332;2022-12-07T14:48:36;6.40;99.90
24152;DHT22;12311;50.866;4.332;2022-12-07T14:51:02;6.30;99.90
24152;DHT22;12311;50.866;4.332;2022-12-07T14:53:35;6.40;99.90
24152;DHT22;12311;50.866;4.332;2022-12-07T14:56:03;6.50;99.90
24152;DHT22;12311;50.866;4.332;2022-12-07T14:58:31;6.60;99.90
24152;DHT22;12311;50.866;4.332;2022-12-07T15:00:58;6.60;99.90
24152;DHT22;12311;50.866;4.332;2022-12-07T15:03:24;6.60;99.90
24152;DHT22;12311;50.866;4.332;2022-12-07T15:05:49;6.60;99.90
24152;DHT22;12311;50.866;4.332;2022-12-07T15:08:15;6.60;99.90
24152;DHT22;12311;50.866;4.332;2022-12-07T15:10:41;6.60;99.90
24152;DHT22;12311;50.866;4.332;2022-12-07T15:13:07;6.60;99.90
24152;DHT22;12311;50.866;4.332;2022-12-07T15:15:52;6.70;99.90
24152;DHT22;12311;50.866;4.332;2022-12-07T15:18:20;6.70;99.90
24152;DHT22;12311;50.866;4.332;2022-12-07T15:20:46;6.70;99.90
24152;DHT22;12311;50.866;4.332;2022-12-07T15:23:12;6.70;99.90
24152;DHT22;12311;50.866;4.332;2022-12-07T15:25:43;6.70;99.90
24152;DHT22;12311;50.866;4.332;2022-12-07T15:28:09;6.70;99.90
24152;DHT22;12311;50.866;4.332;2022-12-07T15:30:37;6.80;99.90
24152;DHT22;12311;50.866;4.332;2022-12-07T15:33:03;6.80;99.90
24152;DHT22;12311;50.866;4.332;2022-12-07T15:35:29;6.70;99.90
24152;DHT22;12311;50.866;4.332;2022-12-07T15:37:54;6.60;99.90
24152;DHT22;12311;50.866;4.332;2022-12-07T15:40:20;6.60;99.90
24152;DHT22;12311;50.866;4.332;2022-12-07T15:42:46;6.50;99.90
24152;DHT22;12311;50.866;4.332;2022-12-07T15:45:12;6.40;99.90
24152;DHT22;12311;50.866;4.332;2022-12-07T15:47:43;6.30;99.90
24152;DHT22;12311;50.866;4.332;2022-12-07T15:50:12;6.20;99.90
24152;DHT22;12311;50.866;4.332;2022-12-07T15:52:38;6.20;99.90
24152;DHT22;12311;50.866;4.332;2022-12-07T15:55:04;6.30;99.90
24152;DHT22;12311;50.866;4.332;2022-12-07T15:57:31;6.30;99.90
24152;DHT22;12311;50.866;4.332;2022-12-07T15:59:57;6.20;99.90
24152;DHT22;12311;50.866;4.332;2022-12-07T16:02:23;6.10;99.90
24152;DHT22;12311;50.866;4.332;2022-12-07T16:04:49;6.20;99.90
24152;DHT22;12311;50.866;4.332;2022-12-07T16:07:15;6.30;99.90
24152;DHT22;12311;50.866;4.332;2022-12-07T16:09:42;6.30;99.90
24152;DHT22;12311;50.866;4.332;2022-12-07T16:12:09;6.20;99.90
24152;DHT22;12311;50.866;4.332;2022-12-07T16:14:35;6.20;99.90
24152;DHT22;12311;50.866;4.332;2022-12-07T16:17:01;6.30;99.90
24152;DHT22;12311;50.866;4.332;2022-12-07T16:19:27;6.30;99.90
24152;DHT22;12311;50.866;4.332;2022-12-07T16:21:52;6.40;99.90
24152;DHT22;12311;50.866;4.332;2022-12-07T16:24:18;6.30;99.90
24152;DHT22;12311;50.866;4.332;2022-12-07T16:26:44;6.20;99.90
24152;DHT22;12311;50.866;4.332;2022-12-07T16:29:13;6.10;99.90
24152;DHT22;12311;50.866;4.332;2022-12-07T16:31:39;6.10;99.90
24152;DHT22;12311;50.866;4.332;2022-12-07T16:34:06;6.10;99.90
24152;DHT22;12311;50.866;4.332;2022-12-07T16:36:32;6.00;99.90
24152;DHT22;12311;50.866;4.332;2022-12-07T16:39:01;6.00;99.90
24152;DHT22;12311;50.866;4.332;2022-12-07T16:41:27;6.00;99.90
24152;DHT22;12311;50.866;4.332;2022-12-07T16:43:52;6.00;99.90
24152;DHT22;12311;50.866;4.332;2022-12-07T16:46:18;6.00;99.90
24152;DHT22;12311;50.866;4.332;2022-12-07T16:48:44;6.00;99.90
24152;DHT22;12311;50.866;4.332;2022-12-07T16:51:12;6.10;99.90
24152;DHT22;12311;50.866;4.332;2022-12-07T16:53:40;6.20;99.90
24152;DHT22;12311;50.866;4.332;2022-12-07T16:56:16;6.20;99.90
24152;DHT22;12311;50.866;4.332;2022-12-07T16:58:42;6.20;99.90
24152;DHT22;12311;50.866;4.332;2022-12-07T17:01:19;6.30;99.90
24152;DHT22;12311;50.866;4.332;2022-12-07T17:03:47;6.20;99.90
24152;DHT22;12311;50.866;4.332;2022-12-07T17:06:18;6.20;99.90
24152;DHT22;12311;50.866;4.332;2022-12-07T17:08:44;6.20;99.90
24152;DHT22;12311;50.866;4.332;2022-12-07T17:11:15;6.30;99.90
24152;DHT22;12311;50.866;4.332;2022-12-07T17:13:41;6.30;99.90
24152;DHT22;12311;50.866;4.332;2022-12-07T17:16:26;6.30;99.90
24152;DHT22;12311;50.866;4.332;2022-12-07T17:18:51;6.30;99.90
24152;DHT22;12311;50.866;4.332;2022-12-07T17:21:17;6.30;99.90
24152;DHT22;12311;50.866;4.332;2022-12-07T17:23:43;6.20;99.90
24152;DHT22;12311;50.866;4.332;2022-12-07T17:26:12;6.20;99.90
24152;DHT22;12311;50.866;4.332;2022-12-07T17:28:38;6.30;99.90
24152;DHT22;12311;50.866;4.332;2022-12-07T17:31:06;6.30;99.90
24152;DHT22;12311;50.866;4.332;2022-12-07T17:33:32;6.40;99.90
24152;DHT22;12311;50.866;4.332;2022-12-07T17:35:59;6.40;99.90
24152;DHT22;12311;50.866;4.332;2022-12-07T17:38:24;6.30;99.90
24152;DHT22;12311;50.866;4.332;2022-12-07T17:40:50;6.30;99.90
24152;DHT22;12311;50.866;4.332;2022-12-07T17:43:16;6.30;99.90
24152;DHT22;12311;50.866;4.332;2022-12-07T17:45:42;6.30;99.90
24152;DHT22;12311;50.866;4.332;2022-12-07T17:48:07;6.20;99.90
24152;DHT22;12311;50.866;4.332;2022-12-07T17:50:33;6.20;99.90
24152;DHT22;12311;50.866;4.332;2022-12-07T17:53:17;6.20;99.90